In Rescue
 
Open Full Screen Window  High Contrast Mode
Wind Gusting 00 knots
07
November 19, 2019 12:10 PM CST
Weather Information
Wind Direction
  350 °
Wind Speed
  07 kt (8 mph)
Wind Gust
  00 kt (0 mph)
Altimeter
29.86 in
Visibility
10 SM
Temperature
06° C
43° F
Dewpoint
02° C
36° F
Humidity
76%
1hr Rain Fall
00.00 in.
24hr Rain Fall
00.02 in.
Sky Condition
Overcast @ 3,300 ft
Scattered @ 1,600 ft
VFR

METAR KMVE 191810Z AUTO 35007KT 10SM SCT016 OVC033 06/02 A2986 RMK AO2

FAA Disclaimer: The data displayed is for advisory purposes only and is not to be used for flight planning or operations.